This is the latest recevied weather packets stored in our database for station/object W1BKW. If no packets are shown the sender has not sent any weather packets the latest 10 day(s).
| Time | Temp. | Humidity | Pressure | Rain* | Wind** | Luminosity | Snow |
|---|---|---|---|---|---|---|---|
| 1778029565 | 14.44° C | 99% | 1005.5 hPa | 0 mm | - | 0 W/m² | - |
| 1778028661 | 14.44° C | 99% | 1005.6 hPa | 0 mm | - | 0 W/m² | - |
| 1778027757 | 14.44° C | 99% | 1005.3 hPa | 0 mm | - | 0 W/m² | - |
| 1778026857 | 15° C | 99% | 1004.5 hPa | 0 mm | - | 0 W/m² | - |
| 1778025953 | 15° C | 96% | 1004.4 hPa | 0 mm | - | 0 W/m² | - |
| 1778025051 | 15° C | 99% | 1004.7 hPa | 0 mm | - | 0 W/m² | - |
| 1778024149 | 15.56° C | 92% | 1004.4 hPa | 0 mm | - | 0 W/m² | - |
| 1778023247 | 15.56° C | 99% | 1004.6 hPa | 0 mm | - | 2 W/m² | - |
| 1778022344 | 15.56° C | 97% | 1004.6 hPa | 0 mm | - | 0 W/m² | - |
| 1778021439 | 16.67° C | 87% | 1004.9 hPa | 1.27 mm | - | 0 W/m² | - |
| 1778020537 | 16.67° C | 86% | 1004.5 hPa | 1.78 mm | - | 1 W/m² | - |
| 1778019637 | 16.67° C | 89% | 1004.1 hPa | 1.27 mm | - | 2 W/m² | - |
| 1778018733 | 18.89° C | 78% | 1004.1 hPa | 0 mm | - | 3 W/m² | - |
| 1778017832 | 23.89° C | 50% | 1001.1 hPa | 0 mm | - | 20 W/m² | - |
| 1778016930 | 24.44° C | 48% | 1000.6 hPa | 0 mm | - | 40 W/m² | - |
| 1778016026 | 25° C | 46% | 1000.6 hPa | 0 mm | - | 60 W/m² | - |
| 1778015122 | 26.11° C | 45% | 1000.7 hPa | 0 mm | - | 211 W/m² | - |
| 1778014220 | 25.56° C | 44% | 1000.4 hPa | 0 mm | - | 233 W/m² | - |
| 1778013317 | 25.56° C | 46% | 1000.6 hPa | 0 mm | - | 262 W/m² | - |
| 1778012412 | 26.67° C | 43% | 1000.5 hPa | 0 mm | - | 180 W/m² | - |
| 1778011511 | 26.67° C | 37% | 1000.4 hPa | 0 mm | - | 190 W/m² | - |
| 1778010607 | 26.11° C | 37% | 1000.7 hPa | 0 mm | - | 182 W/m² | - |
| 1778009702 | 26.11° C | 39% | 1000.7 hPa | 0 mm | - | 154 W/m² | - |
| 1778008800 | 26.67° C | 36% | 1000.9 hPa | 0 mm | - | 216 W/m² | - |
| 1778007896 | 26.11° C | 42% | 1000.8 hPa | 0 mm | - | 411 W/m² | - |
* Rain latest hour (hover to see other rain measurements)
** Current wind speed in m/s (hover to see current wind gust speed)